sensor_id;sensor_type;location;lat;lon;timestamp;pressure;altitude;pressure_sealevel;temperature;humidity
31357;BME280;60001;48.404;11.738;2022-09-27T00:00:39;94786.19;;;12.26;71.11
31357;BME280;60001;48.404;11.738;2022-09-27T00:02:11;94778.56;;;12.25;71.42
31357;BME280;60001;48.404;11.738;2022-09-27T00:03:43;94777.28;;;12.22;72.01
31357;BME280;60001;48.404;11.738;2022-09-27T00:05:15;94777.88;;;12.19;72.06
31357;BME280;60001;48.404;11.738;2022-09-27T00:06:47;94770.25;;;12.18;72.46
31357;BME280;60001;48.404;11.738;2022-09-27T00:08:19;94772.41;;;12.16;72.91
31357;BME280;60001;48.404;11.738;2022-09-27T00:09:51;94773.78;;;12.13;72.61
31357;BME280;60001;48.404;11.738;2022-09-27T00:11:26;94765.16;;;12.07;72.97
31357;BME280;60001;48.404;11.738;2022-09-27T00:12:59;94775.94;;;12.11;72.96
31357;BME280;60001;48.404;11.738;2022-09-27T00:14:31;94763.00;;;12.10;73.07
31357;BME280;60001;48.404;11.738;2022-09-27T00:16:03;94765.94;;;12.08;73.16
31357;BME280;60001;48.404;11.738;2022-09-27T00:17:36;94763.59;;;12.06;73.47
31357;BME280;60001;48.404;11.738;2022-09-27T00:19:12;94754.09;;;12.05;73.52
31357;BME280;60001;48.404;11.738;2022-09-27T00:20:44;94754.41;;;12.04;74.12
31357;BME280;60001;48.404;11.738;2022-09-27T00:22:16;94752.81;;;12.03;74.42
31357;BME280;60001;48.404;11.738;2022-09-27T00:23:47;94741.28;;;11.99;74.21
31357;BME280;60001;48.404;11.738;2022-09-27T00:25:19;94744.72;;;11.99;74.31
31357;BME280;60001;48.404;11.738;2022-09-27T00:26:51;94746.09;;;11.97;73.95
31357;BME280;60001;48.404;11.738;2022-09-27T00:28:24;94739.22;;;11.96;73.87
31357;BME280;60001;48.404;11.738;2022-09-27T00:29:56;94735.53;;;11.97;73.62
31357;BME280;60001;48.404;11.738;2022-09-27T00:31:29;94738.16;;;11.97;73.81
31357;BME280;60001;48.404;11.738;2022-09-27T00:33:00;94734.91;;;12.00;73.87
31357;BME280;60001;48.404;11.738;2022-09-27T00:34:34;94730.72;;;11.99;74.17
31357;BME280;60001;48.404;11.738;2022-09-27T00:36:06;94736.78;;;11.99;74.08
31357;BME280;60001;48.404;11.738;2022-09-27T00:37:41;94730.72;;;11.99;74.15
31357;BME280;60001;48.404;11.738;2022-09-27T00:39:12;94732.56;;;11.98;74.90
31357;BME280;60001;48.404;11.738;2022-09-27T00:40:45;94737.88;;;11.98;75.09
31357;BME280;60001;48.404;11.738;2022-09-27T00:42:18;94735.22;;;11.98;75.59
31357;BME280;60001;48.404;11.738;2022-09-27T00:43:52;94736.00;;;11.99;75.39
31357;BME280;60001;48.404;11.738;2022-09-27T00:45:24;94731.78;;;11.98;75.84
31357;BME280;60001;48.404;11.738;2022-09-27T00:47:00;94726.19;;;11.99;75.97
31357;BME280;60001;48.404;11.738;2022-09-27T00:48:35;94729.94;;;11.98;76.51
31357;BME280;60001;48.404;11.738;2022-09-27T00:50:19;94726.81;;;11.96;76.97
31357;BME280;60001;48.404;11.738;2022-09-27T00:51:56;94727.59;;;11.97;76.89
31357;BME280;60001;48.404;11.738;2022-09-27T00:53:32;94721.78;;;11.95;76.71
31357;BME280;60001;48.404;11.738;2022-09-27T00:55:11;94720.72;;;11.96;76.89
31357;BME280;60001;48.404;11.738;2022-09-27T00:56:47;94720.72;;;11.96;77.32
31357;BME280;60001;48.404;11.738;2022-09-27T00:58:24;94722.28;;;11.97;76.86
31357;BME280;60001;48.404;11.738;2022-09-27T01:00:02;94719.34;;;11.98;76.98
31357;BME280;60001;48.404;11.738;2022-09-27T01:01:34;94713.84;;;11.95;76.93
31357;BME280;60001;48.404;11.738;2022-09-27T01:03:10;94722.00;;;11.98;77.18
31357;BME280;60001;48.404;11.738;2022-09-27T01:04:46;94716.50;;;11.95;76.87
31357;BME280;60001;48.404;11.738;2022-09-27T01:06:21;94721.22;;;11.98;76.86
31357;BME280;60001;48.404;11.738;2022-09-27T01:07:53;94714.84;;;11.99;77.10
31357;BME280;60001;48.404;11.738;2022-09-27T01:09:26;94717.78;;;11.97;77.48
31357;BME280;60001;48.404;11.738;2022-09-27T01:11:13;94714.38;;;11.97;78.10
31357;BME280;60001;48.404;11.738;2022-09-27T01:12:57;94710.44;;;11.94;78.31
31357;BME280;60001;48.404;11.738;2022-09-27T01:14:43;94715.41;;;11.96;78.62
31357;BME280;60001;48.404;11.738;2022-09-27T01:16:26;94713.69;;;11.91;78.48
31357;BME280;60001;48.404;11.738;2022-09-27T01:18:16;94710.38;;;11.86;78.60
31357;BME280;60001;48.404;11.738;2022-09-27T01:20:21;94706.16;;;11.85;78.72
31357;BME280;60001;48.404;11.738;2022-09-27T01:22:06;94706.16;;;11.85;78.78
31357;BME280;60001;48.404;11.738;2022-09-27T01:23:59;94703.50;;;11.85;79.06
31357;BME280;60001;48.404;11.738;2022-09-27T01:25:51;94703.50;;;11.85;79.29
31357;BME280;60001;48.404;11.738;2022-09-27T01:27:55;94703.81;;;11.83;79.42
31357;BME280;60001;48.404;11.738;2022-09-27T01:29:51;94701.16;;;11.83;79.74
31357;BME280;60001;48.404;11.738;2022-09-27T01:31:38;94702.72;;;11.84;79.69
31357;BME280;60001;48.404;11.738;2022-09-27T01:33:27;94691.38;;;11.84;79.95
31357;BME280;60001;48.404;11.738;2022-09-27T01:35:05;94694.81;;;11.84;79.68
31357;BME280;60001;48.404;11.738;2022-09-27T01:36:51;94686.34;;;11.82;80.03
31357;BME280;60001;48.404;11.738;2022-09-27T01:38:39;94685.06;;;11.79;80.15
31357;BME280;60001;48.404;11.738;2022-09-27T01:40:21;94680.56;;;11.80;80.44
31357;BME280;60001;48.404;11.738;2022-09-27T01:42:04;94681.66;;;11.79;80.89
31357;BME280;60001;48.404;11.738;2022-09-27T01:43:45;94676.66;;;11.77;81.01
31357;BME280;60001;48.404;11.738;2022-09-27T01:45:24;94686.47;;;11.77;81.03
31357;BME280;60001;48.404;11.738;2022-09-27T01:47:04;94678.34;;;11.73;81.26
31357;BME280;60001;48.404;11.738;2022-09-27T01:48:45;94666.97;;;11.73;81.11
31357;BME280;60001;48.404;11.738;2022-09-27T01:50:23;94667.28;;;11.71;81.51
31357;BME280;60001;48.404;11.738;2022-09-27T01:52:01;94668.38;;;11.70;81.52
31357;BME280;60001;48.404;11.738;2022-09-27T01:53:38;94671.78;;;11.71;81.19
31357;BME280;60001;48.404;11.738;2022-09-27T01:55:15;94664.63;;;11.71;81.18
31357;BME280;60001;48.404;11.738;2022-09-27T01:56:52;94667.28;;;11.71;81.05
31357;BME280;60001;48.404;11.738;2022-09-27T01:58:32;94663.84;;;11.71;80.56
31357;BME280;60001;48.404;11.738;2022-09-27T02:00:07;94670.72;;;11.72;80.28
31357;BME280;60001;48.404;11.738;2022-09-27T02:01:45;94665.09;;;11.73;80.43
31357;BME280;60001;48.404;11.738;2022-09-27T02:03:25;94670.09;;;11.75;80.63
31357;BME280;60001;48.404;11.738;2022-09-27T02:05:02;94672.75;;;11.75;80.54
31357;BME280;60001;48.404;11.738;2022-09-27T02:06:42;94666.41;;;11.76;80.17
31357;BME280;60001;48.404;11.738;2022-09-27T02:08:20;94670.91;;;11.75;80.12
31357;BME280;60001;48.404;11.738;2022-09-27T02:09:58;94673.25;;;11.77;80.81
31357;BME280;60001;48.404;11.738;2022-09-27T02:11:35;94670.59;;;11.77;80.96
31357;BME280;60001;48.404;11.738;2022-09-27T02:13:16;94663.75;;;11.76;80.88
31357;BME280;60001;48.404;11.738;2022-09-27T02:14:54;94663.75;;;11.76;81.03
31357;BME280;60001;48.404;11.738;2022-09-27T02:16:32;94665.41;;;11.72;81.40
31357;BME280;60001;48.404;11.738;2022-09-27T02:18:16;94650.38;;;11.59;81.36
31357;BME280;60001;48.404;11.738;2022-09-27T02:19:55;94661.53;;;11.69;81.53
31357;BME280;60001;48.404;11.738;2022-09-27T02:21:40;94660.22;;;11.67;81.80
31357;BME280;60001;48.404;11.738;2022-09-27T02:23:20;94661.63;;;11.64;82.08
31357;BME280;60001;48.404;11.738;2022-09-27T02:24:57;94651.56;;;11.52;82.42
31357;BME280;60001;48.404;11.738;2022-09-27T02:26:35;94660.94;;;11.59;82.43
31357;BME280;60001;48.404;11.738;2022-09-27T02:28:19;94665.94;;;11.60;82.72
31357;BME280;60001;48.404;11.738;2022-09-27T02:32:21;94656.75;;;11.58;82.82
31357;BME280;60001;48.404;11.738;2022-09-27T02:33:57;94655.75;;;11.53;83.38
31357;BME280;60001;48.404;11.738;2022-09-27T02:35:34;94664.00;;;11.52;83.45
31357;BME280;60001;48.404;11.738;2022-09-27T02:37:06;94656.38;;;11.50;83.33
31357;BME280;60001;48.404;11.738;2022-09-27T02:38:38;94655.09;;;11.48;83.61
31357;BME280;60001;48.404;11.738;2022-09-27T02:40:11;94654.59;;;11.46;84.02
31357;BME280;60001;48.404;11.738;2022-09-27T02:41:44;94653.81;;;11.45;83.67
31357;BME280;60001;48.404;11.738;2022-09-27T02:43:19;94638.25;;;11.44;84.30
31357;BME280;60001;48.404;11.738;2022-09-27T02:44:51;94644.34;;;11.44;84.22
31357;BME280;60001;48.404;11.738;2022-09-27T02:46:36;94642.00;;;11.43;84.51
31357;BME280;60001;48.404;11.738;2022-09-27T02:48:23;94638.56;;;11.42;84.68
31357;BME280;60001;48.404;11.738;2022-09-27T02:50:17;94631.41;;;11.43;85.22
31357;BME280;60001;48.404;11.738;2022-09-27T02:52:09;94625.34;;;11.42;85.17
31357;BME280;60001;48.404;11.738;2022-09-27T02:53:58;94621.72;;;11.38;85.61
31357;BME280;60001;48.404;11.738;2022-09-27T02:55:45;94622.34;;;11.35;85.62
31357;BME280;60001;48.404;11.738;2022-09-27T02:57:31;94624.47;;;11.33;85.56
31357;BME280;60001;48.404;11.738;2022-09-27T02:59:17;94616.84;;;11.32;85.62
31357;BME280;60001;48.404;11.738;2022-09-27T03:01:00;94623.69;;;11.33;85.85
31357;BME280;60001;48.404;11.738;2022-09-27T03:02:45;94624.78;;;11.32;85.91
31357;BME280;60001;48.404;11.738;2022-09-27T03:04:26;94626.63;;;11.31;86.14
31357;BME280;60001;48.404;11.738;2022-09-27T03:06:05;94623.22;;;11.31;85.99
31357;BME280;60001;48.404;11.738;2022-09-27T03:07:40;94621.19;;;11.28;85.93
31357;BME280;60001;48.404;11.738;2022-09-27T03:09:19;94628.03;;;11.29;86.33
31357;BME280;60001;48.404;11.738;2022-09-27T03:10:51;94622.25;;;11.27;86.44
31357;BME280;60001;48.404;11.738;2022-09-27T03:12:23;94623.63;;;11.24;86.21
31357;BME280;60001;48.404;11.738;2022-09-27T03:13:56;94622.06;;;11.23;86.75
31357;BME280;60001;48.404;11.738;2022-09-27T03:15:28;94619.72;;;11.21;86.79
31357;BME280;60001;48.404;11.738;2022-09-27T03:16:59;94618.16;;;11.20;86.90
31357;BME280;60001;48.404;11.738;2022-09-27T03:18:31;94614.75;;;11.20;87.22
31357;BME280;60001;48.404;11.738;2022-09-27T03:20:03;94611.78;;;11.21;87.15
31357;BME280;60001;48.404;11.738;2022-09-27T03:21:36;94613.34;;;11.22;86.76
31357;BME280;60001;48.404;11.738;2022-09-27T03:23:10;94608.94;;;11.18;86.90
31357;BME280;60001;48.404;11.738;2022-09-27T03:24:40;94613.16;;;11.19;86.90
31357;BME280;60001;48.404;11.738;2022-09-27T03:26:12;94608.66;;;11.19;87.42
31357;BME280;60001;48.404;11.738;2022-09-27T03:27:44;94600.25;;;11.17;87.60
31357;BME280;60001;48.404;11.738;2022-09-27T03:29:16;94605.22;;;11.19;87.71
31357;BME280;60001;48.404;11.738;2022-09-27T03:30:51;94602.88;;;11.17;87.76
31357;BME280;60001;48.404;11.738;2022-09-27T03:32:23;94610.81;;;11.17;87.63
31357;BME280;60001;48.404;11.738;2022-09-27T03:33:54;94607.88;;;11.19;87.52
31357;BME280;60001;48.404;11.738;2022-09-27T03:35:26;94609.25;;;11.16;87.46
31357;BME280;60001;48.404;11.738;2022-09-27T03:36:57;94606.91;;;11.15;87.57
31357;BME280;60001;48.404;11.738;2022-09-27T03:38:30;94607.22;;;11.13;87.68
31357;BME280;60001;48.404;11.738;2022-09-27T03:40:03;94601.16;;;11.13;88.11
31357;BME280;60001;48.404;11.738;2022-09-27T03:41:33;94595.06;;;11.12;87.85
31357;BME280;60001;48.404;11.738;2022-09-27T03:43:05;94594.00;;;11.13;88.26
31357;BME280;60001;48.404;11.738;2022-09-27T03:44:37;94593.22;;;11.13;88.49
31357;BME280;60001;48.404;11.738;2022-09-27T03:46:10;94600.53;;;11.16;88.03
31357;BME280;60001;48.404;11.738;2022-09-27T03:47:41;94598.97;;;11.15;88.50
31357;BME280;60001;48.404;11.738;2022-09-27T03:49:12;94596.34;;;11.15;88.33
31357;BME280;60001;48.404;11.738;2022-09-27T03:50:44;94602.41;;;11.15;88.56
31357;BME280;60001;48.404;11.738;2022-09-27T03:52:16;94589.50;;;11.14;88.59
31357;BME280;60001;48.404;11.738;2022-09-27T03:53:50;94587.94;;;11.13;88.72
31357;BME280;60001;48.404;11.738;2022-09-27T03:55:22;94582.66;;;11.13;88.82
31357;BME280;60001;48.404;11.738;2022-09-27T03:56:54;94583.44;;;11.13;88.62
31357;BME280;60001;48.404;11.738;2022-09-27T03:58:25;94575.78;;;11.12;88.78
31357;BME280;60001;48.404;11.738;2022-09-27T03:59:57;94577.38;;;11.13;88.72
31357;BME280;60001;48.404;11.738;2022-09-27T04:01:29;94581.84;;;11.12;88.82
31357;BME280;60001;48.404;11.738;2022-09-27T04:03:01;94570.81;;;11.10;89.02
31357;BME280;60001;48.404;11.738;2022-09-27T04:04:33;94576.09;;;11.10;89.20
31357;BME280;60001;48.404;11.738;2022-09-27T04:06:06;94574.53;;;11.09;89.17
31357;BME280;60001;48.404;11.738;2022-09-27T04:07:37;94570.34;;;11.08;89.44
31357;BME280;60001;48.404;11.738;2022-09-27T04:09:10;94574.22;;;11.11;89.19
31357;BME280;60001;48.404;11.738;2022-09-27T04:10:42;94568.94;;;11.11;89.67
31357;BME280;60001;48.404;11.738;2022-09-27T04:12:14;94570.50;;;11.12;89.40
31357;BME280;60001;48.404;11.738;2022-09-27T04:13:45;94562.03;;;11.01;89.76
31357;BME280;60001;48.404;11.738;2022-09-27T04:15:18;94567.09;;;11.11;89.84
31357;BME280;60001;48.404;11.738;2022-09-27T04:16:50;94569.72;;;11.11;89.84
31357;BME280;60001;48.404;11.738;2022-09-27T04:18:22;94573.16;;;11.12;89.55
31357;BME280;60001;48.404;11.738;2022-09-27T04:19:54;94570.22;;;11.13;89.91
31357;BME280;60001;48.404;11.738;2022-09-27T04:21:28;94576.56;;;11.12;89.97
31357;BME280;60001;48.404;11.738;2022-09-27T04:23:00;94573.16;;;11.12;89.73
31357;BME280;60001;48.404;11.738;2022-09-27T04:24:33;94561.25;;;11.01;89.78
31357;BME280;60001;48.404;11.738;2022-09-27T04:26:05;94568.66;;;11.12;89.76
31357;BME280;60001;48.404;11.738;2022-09-27T04:27:38;94575.00;;;11.11;89.88
31357;BME280;60001;48.404;11.738;2022-09-27T04:29:12;94569.63;;;11.16;89.98
31357;BME280;60001;48.404;11.738;2022-09-27T04:30:45;94566.19;;;11.16;90.01
31357;BME280;60001;48.404;11.738;2022-09-27T04:32:17;94565.13;;;11.17;90.12
31357;BME280;60001;48.404;11.738;2022-09-27T04:33:49;94571.97;;;11.18;89.63
31357;BME280;60001;48.404;11.738;2022-09-27T04:35:20;94565.44;;;11.15;89.77
31357;BME280;60001;48.404;11.738;2022-09-27T04:37:10;94569.94;;;11.15;89.75
31357;BME280;60001;48.404;11.738;2022-09-27T04:38:41;94563.88;;;11.14;90.05
31357;BME280;60001;48.404;11.738;2022-09-27T04:40:14;94571.19;;;11.17;89.88
31357;BME280;60001;48.404;11.738;2022-09-27T04:41:46;94568.06;;;11.15;89.85
31357;BME280;60001;48.404;11.738;2022-09-27T04:43:18;94570.72;;;11.15;90.15
31357;BME280;60001;48.404;11.738;2022-09-27T04:44:50;94567.59;;;11.13;89.90
31357;BME280;60001;48.404;11.738;2022-09-27T04:46:22;94578.97;;;11.00;89.02
31357;BME280;60001;48.404;11.738;2022-09-27T04:47:54;94568.56;;;11.04;89.78
31357;BME280;60001;48.404;11.738;2022-09-27T04:49:26;94567.22;;;11.06;89.85
31357;BME280;60001;48.404;11.738;2022-09-27T04:51:00;94577.19;;;11.09;89.90
31357;BME280;60001;48.404;11.738;2022-09-27T04:52:33;94566.59;;;11.09;90.06
31357;BME280;60001;48.404;11.738;2022-09-27T04:54:04;94566.91;;;11.08;89.80
31357;BME280;60001;48.404;11.738;2022-09-27T04:55:38;94579.81;;;11.09;89.43
31357;BME280;60001;48.404;11.738;2022-09-27T04:57:09;94575.41;;;11.05;89.21
31357;BME280;60001;48.404;11.738;2022-09-27T04:58:42;94570.44;;;11.03;89.41
31357;BME280;60001;48.404;11.738;2022-09-27T05:00:15;94576.00;;;11.02;89.30
31357;BME280;60001;48.404;11.738;2022-09-27T05:01:47;94581.59;;;11.00;89.54
31357;BME280;60001;48.404;11.738;2022-09-27T05:03:20;94580.50;;;11.01;89.37
31357;BME280;60001;48.404;11.738;2022-09-27T05:04:51;94585.31;;;10.99;89.34
31357;BME280;60001;48.404;11.738;2022-09-27T05:06:23;94582.69;;;10.99;89.42
31357;BME280;60001;48.404;11.738;2022-09-27T05:07:54;94584.50;;;10.98;89.64
31357;BME280;60001;48.404;11.738;2022-09-27T05:09:26;94584.81;;;10.97;89.71
31357;BME280;60001;48.404;11.738;2022-09-27T05:10:59;94592.16;;;11.00;89.66
31357;BME280;60001;48.404;11.738;2022-09-27T05:12:31;94590.59;;;10.99;89.39
31357;BME280;60001;48.404;11.738;2022-09-27T05:14:03;94591.06;;;11.01;89.41
31357;BME280;60001;48.404;11.738;2022-09-27T05:15:35;94586.56;;;11.02;89.88
31357;BME280;60001;48.404;11.738;2022-09-27T05:17:07;94591.56;;;11.03;89.82
31357;BME280;60001;48.404;11.738;2022-09-27T05:18:39;94593.63;;;11.06;89.59
31357;BME280;60001;48.404;11.738;2022-09-27T05:20:11;94588.91;;;11.03;89.75
31357;BME280;60001;48.404;11.738;2022-09-27T05:21:43;94588.34;;;11.06;89.71
31357;BME280;60001;48.404;11.738;2022-09-27T05:23:15;94591.16;;;11.10;89.33
31357;BME280;60001;48.404;11.738;2022-09-27T05:24:47;94577.00;;;11.06;89.42
31357;BME280;60001;48.404;11.738;2022-09-27T05:26:20;94595.59;;;11.01;88.78
31357;BME280;60001;48.404;11.738;2022-09-27T05:27:52;94583.94;;;11.02;88.83
31357;BME280;60001;48.404;11.738;2022-09-27T05:29:24;94589.69;;;11.04;88.77
31357;BME280;60001;48.404;11.738;2022-09-27T05:30:56;94598.41;;;11.04;88.77
31357;BME280;60001;48.404;11.738;2022-09-27T05:32:28;94597.91;;;11.02;88.64
31357;BME280;60001;48.404;11.738;2022-09-27T05:33:59;94600.09;;;11.00;88.49
31357;BME280;60001;48.404;11.738;2022-09-27T05:35:31;94601.25;;;10.94;88.10
31357;BME280;60001;48.404;11.738;2022-09-27T05:37:03;94602.50;;;10.96;88.10
31357;BME280;60001;48.404;11.738;2022-09-27T05:38:35;94601.44;;;10.97;88.25
31357;BME280;60001;48.404;11.738;2022-09-27T05:40:07;94604.38;;;10.96;87.94
31357;BME280;60001;48.404;11.738;2022-09-27T05:41:40;94601.16;;;10.99;88.13
31357;BME280;60001;48.404;11.738;2022-09-27T05:43:13;94604.84;;;10.98;88.02
31357;BME280;60001;48.404;11.738;2022-09-27T05:44:45;94609.88;;;11.00;88.21
31357;BME280;60001;48.404;11.738;2022-09-27T05:46:17;94606.44;;;10.99;88.05
31357;BME280;60001;48.404;11.738;2022-09-27T05:47:54;94618.56;;;11.00;87.75
31357;BME280;60001;48.404;11.738;2022-09-27T05:49:26;94618.28;;;11.02;87.81
31357;BME280;60001;48.404;11.738;2022-09-27T05:50:58;94621.38;;;11.04;87.66
31357;BME280;60001;48.404;11.738;2022-09-27T05:52:30;94616.41;;;11.02;87.60
31357;BME280;60001;48.404;11.738;2022-09-27T05:54:00;94615.94;;;11.00;87.21
31357;BME280;60001;48.404;11.738;2022-09-27T05:55:33;94621.38;;;11.04;87.28
31357;BME280;60001;48.404;11.738;2022-09-27T05:57:06;94617.97;;;11.03;87.42
31357;BME280;60001;48.404;11.738;2022-09-27T05:58:38;94619.53;;;11.04;87.04
31357;BME280;60001;48.404;11.738;2022-09-27T06:00:10;94624.03;;;11.04;86.86
31357;BME280;60001;48.404;11.738;2022-09-27T06:01:41;94622.16;;;11.04;87.04
31357;BME280;60001;48.404;11.738;2022-09-27T06:03:13;94623.25;;;11.03;87.27
31357;BME280;60001;48.404;11.738;2022-09-27T06:04:45;94625.59;;;11.05;87.20
31357;BME280;60001;48.404;11.738;2022-09-27T06:06:16;94623.72;;;11.05;86.79
31357;BME280;60001;48.404;11.738;2022-09-27T06:07:48;94635.28;;;11.09;87.35
31357;BME280;60001;48.404;11.738;2022-09-27T06:09:19;94614.16;;;11.09;86.80
31357;BME280;60001;48.404;11.738;2022-09-27T06:10:59;94632.47;;;11.06;86.21
31357;BME280;60001;48.404;11.738;2022-09-27T06:12:35;94640.56;;;11.09;86.25
31357;BME280;60001;48.404;11.738;2022-09-27T06:14:07;94646.94;;;11.08;86.29
31357;BME280;60001;48.404;11.738;2022-09-27T06:15:41;94642.72;;;11.07;86.30
31357;BME280;60001;48.404;11.738;2022-09-27T06:17:13;94654.56;;;11.10;86.14
31357;BME280;60001;48.404;11.738;2022-09-27T06:18:45;94648.97;;;11.11;85.74
31357;BME280;60001;48.404;11.738;2022-09-27T06:20:17;94656.91;;;11.11;86.15
31357;BME280;60001;48.404;11.738;2022-09-27T06:21:48;94658.44;;;11.12;85.32
31357;BME280;60001;48.404;11.738;2022-09-27T06:23:22;94658.34;;;11.17;85.68
31357;BME280;60001;48.404;11.738;2022-09-27T06:24:54;94663.34;;;11.19;85.85
31357;BME280;60001;48.404;11.738;2022-09-27T06:26:26;94662.28;;;11.20;85.70
31357;BME280;60001;48.404;11.738;2022-09-27T06:27:59;94657.00;;;11.20;85.22
31357;BME280;60001;48.404;11.738;2022-09-27T06:29:31;94662.28;;;11.20;85.16
31357;BME280;60001;48.404;11.738;2022-09-27T06:31:05;94656.72;;;11.21;85.50
31357;BME280;60001;48.404;11.738;2022-09-27T06:32:38;94662.78;;;11.22;85.38
31357;BME280;60001;48.404;11.738;2022-09-27T06:34:10;94669.63;;;11.23;85.51
31357;BME280;60001;48.404;11.738;2022-09-27T06:35:42;94660.59;;;11.24;85.23
31357;BME280;60001;48.404;11.738;2022-09-27T06:37:14;94660.59;;;11.24;84.69
31357;BME280;60001;48.404;11.738;2022-09-27T06:38:46;94665.97;;;11.19;84.98
31357;BME280;60001;48.404;11.738;2022-09-27T06:40:19;94665.72;;;11.20;85.41
31357;BME280;60001;48.404;11.738;2022-09-27T06:41:53;94663.63;;;11.17;85.28
31357;BME280;60001;48.404;11.738;2022-09-27T06:43:28;94673.63;;;11.20;85.20
31357;BME280;60001;48.404;11.738;2022-09-27T06:45:00;94676.06;;;11.17;85.29
31357;BME280;60001;48.404;11.738;2022-09-27T06:46:32;94678.63;;;11.22;85.31
31357;BME280;60001;48.404;11.738;2022-09-27T06:48:06;94676.94;;;11.26;85.50
31357;BME280;60001;48.404;11.738;2022-09-27T06:49:38;94681.94;;;11.28;84.91
31357;BME280;60001;48.404;11.738;2022-09-27T06:51:10;94690.06;;;11.31;84.98
31357;BME280;60001;48.404;11.738;2022-09-27T06:52:46;94690.44;;;11.38;85.25
31357;BME280;60001;48.404;11.738;2022-09-27T06:54:18;94699.34;;;11.42;85.39
31357;BME280;60001;48.404;11.738;2022-09-27T06:55:50;94692.97;;;11.43;85.00
31357;BME280;60001;48.404;11.738;2022-09-27T06:57:22;94697.78;;;11.41;84.78
31357;BME280;60001;48.404;11.738;2022-09-27T06:59:09;94692.59;;;11.36;84.15
31357;BME280;60001;48.404;11.738;2022-09-27T07:00:59;94696.72;;;11.29;83.55
31357;BME280;60001;48.404;11.738;2022-09-27T07:02:31;94688.31;;;11.27;83.80
31357;BME280;60001;48.404;11.738;2022-09-27T07:04:03;94694.38;;;11.27;83.57
31357;BME280;60001;48.404;11.738;2022-09-27T07:05:37;94693.00;;;11.30;83.36
31357;BME280;60001;48.404;11.738;2022-09-27T07:07:09;94702.47;;;11.31;83.53
31357;BME280;60001;48.404;11.738;2022-09-27T07:08:41;94705.91;;;11.31;83.29
31357;BME280;60001;48.404;11.738;2022-09-27T07:10:13;94698.75;;;11.32;83.12
31357;BME280;60001;48.404;11.738;2022-09-27T07:11:46;94695.81;;;11.33;82.88
31357;BME280;60001;48.404;11.738;2022-09-27T07:13:18;94699.75;;;11.36;82.89
31357;BME280;60001;48.404;11.738;2022-09-27T07:14:51;94709.63;;;11.44;82.32
31357;BME280;60001;48.404;11.738;2022-09-27T07:16:23;94709.03;;;11.47;82.11
31357;BME280;60001;48.404;11.738;2022-09-27T07:17:56;94710.00;;;11.51;81.63
31357;BME280;60001;48.404;11.738;2022-09-27T07:19:28;94711.56;;;11.52;80.41
31357;BME280;60001;48.404;11.738;2022-09-27T07:21:00;94718.41;;;11.53;80.62
31357;BME280;60001;48.404;11.738;2022-09-27T07:22:32;94726.84;;;11.55;80.20
31357;BME280;60001;48.404;11.738;2022-09-27T07:24:09;94728.00;;;11.63;79.53
31357;BME280;60001;48.404;11.738;2022-09-27T07:25:41;94727.72;;;11.64;79.55
31357;BME280;60001;48.404;11.738;2022-09-27T07:27:14;94726.31;;;11.67;79.06
31357;BME280;60001;48.404;11.738;2022-09-27T07:28:47;94725.44;;;11.71;78.42
31357;BME280;60001;48.404;11.738;2022-09-27T07:30:20;94738.38;;;11.73;77.75
31357;BME280;60001;48.404;11.738;2022-09-27T07:31:52;94740.31;;;11.67;77.23
31357;BME280;60001;48.404;11.738;2022-09-27T07:33:24;94738.47;;;11.68;76.59
31357;BME280;60001;48.404;11.738;2022-09-27T07:34:56;94736.91;;;11.67;75.85
31357;BME280;60001;48.404;11.738;2022-09-27T07:36:28;94742.69;;;11.69;76.25
31357;BME280;60001;48.404;11.738;2022-09-27T07:38:00;94744.94;;;11.75;76.63
31357;BME280;60001;48.404;11.738;2022-09-27T07:39:33;94737.13;;;11.84;77.57
31357;BME280;60001;48.404;11.738;2022-09-27T07:41:06;94746.38;;;11.95;77.05
31357;BME280;60001;48.404;11.738;2022-09-27T07:42:38;94746.56;;;11.99;75.86
31357;BME280;60001;48.404;11.738;2022-09-27T07:44:10;94744.78;;;12.08;75.85
31357;BME280;60001;48.404;11.738;2022-09-27T07:45:44;94743.28;;;12.16;75.32
31357;BME280;60001;48.404;11.738;2022-09-27T07:47:16;94738.19;;;12.19;74.06
31357;BME280;60001;48.404;11.738;2022-09-27T07:48:49;94737.47;;;12.27;74.09
31357;BME280;60001;48.404;11.738;2022-09-27T07:50:21;94742.16;;;12.30;74.62
31357;BME280;60001;48.404;11.738;2022-09-27T07:51:53;94734.53;;;12.29;73.52
31357;BME280;60001;48.404;11.738;2022-09-27T07:53:25;94740.69;;;12.38;73.52
31357;BME280;60001;48.404;11.738;2022-09-27T07:54:57;94741.94;;;12.41;73.56
31357;BME280;60001;48.404;11.738;2022-09-27T07:56:29;94736.16;;;12.39;73.77
31357;BME280;60001;48.404;11.738;2022-09-27T07:58:02;94736.63;;;12.41;73.35
31357;BME280;60001;48.404;11.738;2022-09-27T07:59:34;94745.00;;;12.34;73.29
31357;BME280;60001;48.404;11.738;2022-09-27T08:01:08;94739.13;;;12.23;72.58
31357;BME280;60001;48.404;11.738;2022-09-27T08:02:40;94745.34;;;12.19;71.50
31357;BME280;60001;48.404;11.738;2022-09-27T08:04:12;94750.03;;;12.22;72.83
31357;BME280;60001;48.404;11.738;2022-09-27T08:05:45;94743.44;;;12.33;73.15
31357;BME280;60001;48.404;11.738;2022-09-27T08:07:17;94750.66;;;12.41;72.20
31357;BME280;60001;48.404;11.738;2022-09-27T08:08:49;94753.09;;;12.38;71.85
31357;BME280;60001;48.404;11.738;2022-09-27T08:10:21;94759.63;;;12.31;71.71
31357;BME280;60001;48.404;11.738;2022-09-27T08:11:55;94741.78;;;12.23;71.74
31357;BME280;60001;48.404;11.738;2022-09-27T08:13:28;94751.91;;;12.21;72.47
31357;BME280;60001;48.404;11.738;2022-09-27T08:15:00;94752.00;;;12.16;72.72
31357;BME280;60001;48.404;11.738;2022-09-27T08:16:35;94752.97;;;12.20;73.22
31357;BME280;60001;48.404;11.738;2022-09-27T08:18:07;94752.00;;;12.16;73.31